sensor_id;sensor_type;location;lat;lon;timestamp;P1;durP1;ratioP1;P2;durP2;ratioP2
15536;SDS011;7870;52.448;13.270;2024-02-21T00:01:16;15.55;;;4.85;;
15536;SDS011;7870;52.448;13.270;2024-02-21T00:03:43;18.85;;;5.32;;
15536;SDS011;7870;52.448;13.270;2024-02-21T00:06:09;18.20;;;6.18;;
15536;SDS011;7870;52.448;13.270;2024-02-21T00:08:36;19.42;;;5.85;;
15536;SDS011;7870;52.448;13.270;2024-02-21T00:11:03;19.13;;;5.72;;
15536;SDS011;7870;52.448;13.270;2024-02-21T00:13:30;20.30;;;6.38;;
15536;SDS011;7870;52.448;13.270;2024-02-21T00:15:56;21.88;;;4.82;;
15536;SDS011;7870;52.448;13.270;2024-02-21T00:18:23;20.90;;;6.07;;
15536;SDS011;7870;52.448;13.270;2024-02-21T00:20:55;16.25;;;5.40;;
15536;SDS011;7870;52.448;13.270;2024-02-21T00:23:22;15.32;;;5.28;;
15536;SDS011;7870;52.448;13.270;2024-02-21T00:25:49;18.38;;;5.63;;
15536;SDS011;7870;52.448;13.270;2024-02-21T00:28:16;18.40;;;4.65;;
15536;SDS011;7870;52.448;13.270;2024-02-21T00:30:43;19.92;;;5.82;;
15536;SDS011;7870;52.448;13.270;2024-02-21T00:33:09;15.45;;;5.70;;
15536;SDS011;7870;52.448;13.270;2024-02-21T00:35:36;12.95;;;4.28;;
15536;SDS011;7870;52.448;13.270;2024-02-21T00:38:03;12.02;;;4.88;;
15536;SDS011;7870;52.448;13.270;2024-02-21T00:40:29;22.42;;;5.30;;
15536;SDS011;7870;52.448;13.270;2024-02-21T00:42:56;17.98;;;5.13;;
15536;SDS011;7870;52.448;13.270;2024-02-21T00:45:23;15.07;;;5.63;;
15536;SDS011;7870;52.448;13.270;2024-02-21T00:47:49;18.58;;;5.15;;
15536;SDS011;7870;52.448;13.270;2024-02-21T00:50:16;12.15;;;5.50;;
15536;SDS011;7870;52.448;13.270;2024-02-21T00:52:43;15.30;;;5.20;;
15536;SDS011;7870;52.448;13.270;2024-02-21T00:55:10;19.17;;;6.35;;
15536;SDS011;7870;52.448;13.270;2024-02-21T00:57:37;15.95;;;4.90;;
15536;SDS011;7870;52.448;13.270;2024-02-21T01:00:04;16.95;;;6.05;;
15536;SDS011;7870;52.448;13.270;2024-02-21T01:02:31;18.50;;;5.38;;
15536;SDS011;7870;52.448;13.270;2024-02-21T01:04:58;17.30;;;5.07;;
15536;SDS011;7870;52.448;13.270;2024-02-21T01:07:25;16.25;;;5.43;;
15536;SDS011;7870;52.448;13.270;2024-02-21T01:09:51;20.48;;;6.10;;
15536;SDS011;7870;52.448;13.270;2024-02-21T01:12:19;17.10;;;5.90;;
15536;SDS011;7870;52.448;13.270;2024-02-21T01:14:45;10.73;;;4.55;;
15536;SDS011;7870;52.448;13.270;2024-02-21T01:17:15;16.10;;;4.80;;
15536;SDS011;7870;52.448;13.270;2024-02-21T01:19:42;12.45;;;4.28;;
15536;SDS011;7870;52.448;13.270;2024-02-21T01:22:08;15.43;;;5.28;;
15536;SDS011;7870;52.448;13.270;2024-02-21T01:24:35;15.00;;;4.93;;
15536;SDS011;7870;52.448;13.270;2024-02-21T01:27:02;21.27;;;5.80;;
15536;SDS011;7870;52.448;13.270;2024-02-21T01:29:28;20.80;;;5.28;;
15536;SDS011;7870;52.448;13.270;2024-02-21T01:31:55;17.30;;;4.25;;
15536;SDS011;7870;52.448;13.270;2024-02-21T01:34:21;12.38;;;4.50;;
15536;SDS011;7870;52.448;13.270;2024-02-21T01:36:48;12.95;;;4.70;;
15536;SDS011;7870;52.448;13.270;2024-02-21T01:39:15;14.40;;;4.93;;
15536;SDS011;7870;52.448;13.270;2024-02-21T01:41:42;15.27;;;5.82;;
15536;SDS011;7870;52.448;13.270;2024-02-21T01:44:08;12.00;;;4.70;;
15536;SDS011;7870;52.448;13.270;2024-02-21T01:46:35;14.65;;;5.65;;
15536;SDS011;7870;52.448;13.270;2024-02-21T01:49:01;15.43;;;5.10;;
15536;SDS011;7870;52.448;13.270;2024-02-21T01:51:28;14.82;;;5.32;;
15536;SDS011;7870;52.448;13.270;2024-02-21T01:53:55;14.43;;;4.85;;
15536;SDS011;7870;52.448;13.270;2024-02-21T01:56:22;13.23;;;5.57;;
15536;SDS011;7870;52.448;13.270;2024-02-21T01:58:49;22.15;;;6.35;;
15536;SDS011;7870;52.448;13.270;2024-02-21T02:01:17;18.88;;;5.82;;
15536;SDS011;7870;52.448;13.270;2024-02-21T02:03:48;13.63;;;5.40;;
15536;SDS011;7870;52.448;13.270;2024-02-21T02:06:15;15.90;;;5.65;;
15536;SDS011;7870;52.448;13.270;2024-02-21T02:08:42;17.27;;;5.88;;
15536;SDS011;7870;52.448;13.270;2024-02-21T02:11:09;15.48;;;6.25;;
15536;SDS011;7870;52.448;13.270;2024-02-21T02:13:36;11.35;;;4.75;;
15536;SDS011;7870;52.448;13.270;2024-02-21T02:16:03;15.48;;;5.80;;
15536;SDS011;7870;52.448;13.270;2024-02-21T02:18:30;14.60;;;5.35;;
15536;SDS011;7870;52.448;13.270;2024-02-21T02:20:56;12.38;;;5.03;;
15536;SDS011;7870;52.448;13.270;2024-02-21T02:23:24;14.10;;;4.78;;
15536;SDS011;7870;52.448;13.270;2024-02-21T02:25:54;15.95;;;5.55;;
15536;SDS011;7870;52.448;13.270;2024-02-21T02:28:21;15.25;;;5.90;;
15536;SDS011;7870;52.448;13.270;2024-02-21T02:30:48;15.85;;;5.30;;
15536;SDS011;7870;52.448;13.270;2024-02-21T02:33:14;11.18;;;5.15;;
15536;SDS011;7870;52.448;13.270;2024-02-21T02:35:43;19.80;;;6.95;;
15536;SDS011;7870;52.448;13.270;2024-02-21T02:38:10;17.65;;;5.47;;
15536;SDS011;7870;52.448;13.270;2024-02-21T02:40:38;17.90;;;6.07;;
15536;SDS011;7870;52.448;13.270;2024-02-21T02:43:05;19.67;;;6.18;;
15536;SDS011;7870;52.448;13.270;2024-02-21T02:45:32;16.20;;;6.20;;
15536;SDS011;7870;52.448;13.270;2024-02-21T02:47:58;22.90;;;8.82;;
15536;SDS011;7870;52.448;13.270;2024-02-21T02:50:25;27.40;;;7.50;;
15536;SDS011;7870;52.448;13.270;2024-02-21T02:52:53;25.25;;;8.00;;
15536;SDS011;7870;52.448;13.270;2024-02-21T02:55:20;18.38;;;6.93;;
15536;SDS011;7870;52.448;13.270;2024-02-21T02:57:46;23.08;;;7.60;;
15536;SDS011;7870;52.448;13.270;2024-02-21T03:00:13;19.65;;;7.20;;
15536;SDS011;7870;52.448;13.270;2024-02-21T03:02:42;20.70;;;7.63;;
15536;SDS011;7870;52.448;13.270;2024-02-21T03:05:11;24.67;;;6.37;;
15536;SDS011;7870;52.448;13.270;2024-02-21T03:07:42;15.27;;;7.35;;
15536;SDS011;7870;52.448;13.270;2024-02-21T03:10:09;20.38;;;7.10;;
15536;SDS011;7870;52.448;13.270;2024-02-21T03:12:37;20.95;;;8.13;;
15536;SDS011;7870;52.448;13.270;2024-02-21T03:15:04;20.25;;;7.30;;
15536;SDS011;7870;52.448;13.270;2024-02-21T03:17:31;22.20;;;7.65;;
15536;SDS011;7870;52.448;13.270;2024-02-21T03:20:01;23.23;;;8.38;;
15536;SDS011;7870;52.448;13.270;2024-02-21T03:22:31;30.77;;;9.18;;
15536;SDS011;7870;52.448;13.270;2024-02-21T03:25:01;22.08;;;8.30;;
15536;SDS011;7870;52.448;13.270;2024-02-21T03:27:27;25.95;;;9.52;;
15536;SDS011;7870;52.448;13.270;2024-02-21T03:29:54;24.83;;;9.20;;
15536;SDS011;7870;52.448;13.270;2024-02-21T03:32:20;28.23;;;10.10;;
15536;SDS011;7870;52.448;13.270;2024-02-21T03:34:47;24.17;;;9.20;;
15536;SDS011;7870;52.448;13.270;2024-02-21T03:37:13;24.40;;;8.93;;
15536;SDS011;7870;52.448;13.270;2024-02-21T03:39:41;20.58;;;9.82;;
15536;SDS011;7870;52.448;13.270;2024-02-21T03:42:07;30.73;;;10.57;;
15536;SDS011;7870;52.448;13.270;2024-02-21T03:44:34;28.35;;;10.40;;
15536;SDS011;7870;52.448;13.270;2024-02-21T03:47:00;22.25;;;9.32;;
15536;SDS011;7870;52.448;13.270;2024-02-21T03:49:27;27.10;;;10.07;;
15536;SDS011;7870;52.448;13.270;2024-02-21T03:51:54;21.08;;;9.40;;
15536;SDS011;7870;52.448;13.270;2024-02-21T03:54:21;21.30;;;9.02;;
15536;SDS011;7870;52.448;13.270;2024-02-21T03:56:47;29.52;;;9.80;;
15536;SDS011;7870;52.448;13.270;2024-02-21T03:59:15;24.00;;;10.43;;
15536;SDS011;7870;52.448;13.270;2024-02-21T04:01:41;24.92;;;9.85;;
15536;SDS011;7870;52.448;13.270;2024-02-21T04:04:09;26.80;;;11.00;;
15536;SDS011;7870;52.448;13.270;2024-02-21T04:06:36;26.45;;;10.23;;
15536;SDS011;7870;52.448;13.270;2024-02-21T04:09:03;27.02;;;10.00;;
15536;SDS011;7870;52.448;13.270;2024-02-21T04:11:29;31.05;;;9.68;;
15536;SDS011;7870;52.448;13.270;2024-02-21T04:13:56;29.27;;;9.88;;
15536;SDS011;7870;52.448;13.270;2024-02-21T04:16:23;29.35;;;10.25;;
15536;SDS011;7870;52.448;13.270;2024-02-21T04:18:50;24.55;;;9.57;;
15536;SDS011;7870;52.448;13.270;2024-02-21T04:21:16;19.13;;;8.50;;
15536;SDS011;7870;52.448;13.270;2024-02-21T04:23:43;28.52;;;10.57;;
15536;SDS011;7870;52.448;13.270;2024-02-21T04:26:10;26.08;;;9.57;;
15536;SDS011;7870;52.448;13.270;2024-02-21T04:28:36;28.70;;;11.73;;
15536;SDS011;7870;52.448;13.270;2024-02-21T04:31:03;29.17;;;11.10;;
15536;SDS011;7870;52.448;13.270;2024-02-21T04:33:29;24.48;;;8.48;;
15536;SDS011;7870;52.448;13.270;2024-02-21T04:35:56;25.50;;;9.30;;
15536;SDS011;7870;52.448;13.270;2024-02-21T04:38:24;28.42;;;11.25;;
15536;SDS011;7870;52.448;13.270;2024-02-21T04:40:51;30.45;;;10.52;;
15536;SDS011;7870;52.448;13.270;2024-02-21T04:43:18;27.17;;;10.90;;
15536;SDS011;7870;52.448;13.270;2024-02-21T04:45:44;22.67;;;9.93;;
15536;SDS011;7870;52.448;13.270;2024-02-21T04:48:11;23.45;;;10.10;;
15536;SDS011;7870;52.448;13.270;2024-02-21T04:50:38;25.15;;;9.60;;
15536;SDS011;7870;52.448;13.270;2024-02-21T04:53:04;26.17;;;10.50;;
15536;SDS011;7870;52.448;13.270;2024-02-21T04:55:31;20.65;;;9.88;;
15536;SDS011;7870;52.448;13.270;2024-02-21T04:57:57;24.02;;;10.70;;
15536;SDS011;7870;52.448;13.270;2024-02-21T05:00:24;33.90;;;11.68;;
15536;SDS011;7870;52.448;13.270;2024-02-21T05:02:51;29.75;;;11.48;;
15536;SDS011;7870;52.448;13.270;2024-02-21T05:05:17;18.75;;;8.85;;
15536;SDS011;7870;52.448;13.270;2024-02-21T05:07:44;27.63;;;11.50;;
15536;SDS011;7870;52.448;13.270;2024-02-21T05:10:11;21.05;;;10.15;;
15536;SDS011;7870;52.448;13.270;2024-02-21T05:12:38;28.67;;;10.73;;
15536;SDS011;7870;52.448;13.270;2024-02-21T05:15:04;28.60;;;10.88;;
15536;SDS011;7870;52.448;13.270;2024-02-21T05:17:31;27.90;;;11.20;;
15536;SDS011;7870;52.448;13.270;2024-02-21T05:19:58;26.83;;;12.48;;
15536;SDS011;7870;52.448;13.270;2024-02-21T05:22:25;21.40;;;9.95;;
15536;SDS011;7870;52.448;13.270;2024-02-21T05:24:52;24.13;;;11.80;;
15536;SDS011;7870;52.448;13.270;2024-02-21T05:27:18;25.08;;;11.55;;
15536;SDS011;7870;52.448;13.270;2024-02-21T05:29:45;36.28;;;13.25;;
15536;SDS011;7870;52.448;13.270;2024-02-21T05:32:11;28.77;;;11.48;;
15536;SDS011;7870;52.448;13.270;2024-02-21T05:34:38;23.42;;;11.77;;
15536;SDS011;7870;52.448;13.270;2024-02-21T05:37:05;33.47;;;12.70;;
15536;SDS011;7870;52.448;13.270;2024-02-21T05:39:31;23.33;;;10.10;;
15536;SDS011;7870;52.448;13.270;2024-02-21T05:41:58;25.95;;;11.80;;
15536;SDS011;7870;52.448;13.270;2024-02-21T05:44:24;30.42;;;11.82;;
15536;SDS011;7870;52.448;13.270;2024-02-21T05:46:53;25.90;;;11.27;;
15536;SDS011;7870;52.448;13.270;2024-02-21T05:49:19;29.17;;;11.80;;
15536;SDS011;7870;52.448;13.270;2024-02-21T05:51:46;25.65;;;13.27;;
15536;SDS011;7870;52.448;13.270;2024-02-21T05:54:13;21.85;;;11.13;;
15536;SDS011;7870;52.448;13.270;2024-02-21T05:56:43;23.67;;;12.05;;
15536;SDS011;7870;52.448;13.270;2024-02-21T05:59:10;25.70;;;12.07;;
15536;SDS011;7870;52.448;13.270;2024-02-21T06:01:36;25.55;;;12.50;;
15536;SDS011;7870;52.448;13.270;2024-02-21T06:04:03;27.75;;;12.05;;
15536;SDS011;7870;52.448;13.270;2024-02-21T06:06:31;23.25;;;12.25;;
15536;SDS011;7870;52.448;13.270;2024-02-21T06:08:57;27.38;;;11.55;;
15536;SDS011;7870;52.448;13.270;2024-02-21T06:11:25;21.98;;;11.20;;
15536;SDS011;7870;52.448;13.270;2024-02-21T06:13:51;22.08;;;10.45;;
15536;SDS011;7870;52.448;13.270;2024-02-21T06:16:18;25.23;;;12.70;;
15536;SDS011;7870;52.448;13.270;2024-02-21T06:18:45;23.48;;;11.43;;
15536;SDS011;7870;52.448;13.270;2024-02-21T06:21:11;23.92;;;11.15;;
15536;SDS011;7870;52.448;13.270;2024-02-21T06:23:38;31.67;;;14.73;;
15536;SDS011;7870;52.448;13.270;2024-02-21T06:26:05;21.92;;;12.48;;
15536;SDS011;7870;52.448;13.270;2024-02-21T06:28:31;27.35;;;13.32;;
15536;SDS011;7870;52.448;13.270;2024-02-21T06:30:58;27.48;;;12.20;;
15536;SDS011;7870;52.448;13.270;2024-02-21T06:33:25;23.88;;;12.98;;
15536;SDS011;7870;52.448;13.270;2024-02-21T06:35:51;20.40;;;11.85;;
15536;SDS011;7870;52.448;13.270;2024-02-21T06:38:19;20.70;;;13.05;;
15536;SDS011;7870;52.448;13.270;2024-02-21T06:40:46;24.50;;;11.50;;
15536;SDS011;7870;52.448;13.270;2024-02-21T06:43:17;21.10;;;11.33;;
15536;SDS011;7870;52.448;13.270;2024-02-21T06:45:44;21.00;;;12.25;;
15536;SDS011;7870;52.448;13.270;2024-02-21T06:48:14;22.75;;;13.05;;
15536;SDS011;7870;52.448;13.270;2024-02-21T06:50:41;25.05;;;11.75;;
15536;SDS011;7870;52.448;13.270;2024-02-21T06:53:07;24.15;;;11.43;;
15536;SDS011;7870;52.448;13.270;2024-02-21T06:55:34;24.83;;;11.80;;
15536;SDS011;7870;52.448;13.270;2024-02-21T06:58:00;28.13;;;12.77;;
15536;SDS011;7870;52.448;13.270;2024-02-21T07:00:30;22.65;;;11.32;;
15536;SDS011;7870;52.448;13.270;2024-02-21T07:02:57;23.38;;;12.00;;
15536;SDS011;7870;52.448;13.270;2024-02-21T07:05:24;21.08;;;10.35;;
15536;SDS011;7870;52.448;13.270;2024-02-21T07:07:51;22.10;;;11.77;;
15536;SDS011;7870;52.448;13.270;2024-02-21T07:10:17;20.80;;;11.55;;
15536;SDS011;7870;52.448;13.270;2024-02-21T07:12:44;20.20;;;10.32;;
15536;SDS011;7870;52.448;13.270;2024-02-21T07:15:10;17.98;;;9.90;;
15536;SDS011;7870;52.448;13.270;2024-02-21T07:17:37;20.27;;;10.57;;
15536;SDS011;7870;52.448;13.270;2024-02-21T07:20:04;23.17;;;11.30;;
15536;SDS011;7870;52.448;13.270;2024-02-21T07:22:31;15.52;;;9.75;;
15536;SDS011;7870;52.448;13.270;2024-02-21T07:24:57;16.23;;;10.05;;
15536;SDS011;7870;52.448;13.270;2024-02-21T07:27:24;18.50;;;10.15;;
15536;SDS011;7870;52.448;13.270;2024-02-21T07:29:54;22.92;;;11.45;;
15536;SDS011;7870;52.448;13.270;2024-02-21T07:32:20;18.13;;;9.57;;
15536;SDS011;7870;52.448;13.270;2024-02-21T07:34:47;20.42;;;10.32;;
15536;SDS011;7870;52.448;13.270;2024-02-21T07:37:13;14.57;;;9.70;;
15536;SDS011;7870;52.448;13.270;2024-02-21T07:39:40;21.13;;;9.80;;
15536;SDS011;7870;52.448;13.270;2024-02-21T07:42:07;19.27;;;9.27;;
15536;SDS011;7870;52.448;13.270;2024-02-21T07:44:33;18.52;;;8.98;;
15536;SDS011;7870;52.448;13.270;2024-02-21T07:47:00;15.90;;;9.95;;
15536;SDS011;7870;52.448;13.270;2024-02-21T07:49:27;16.13;;;9.10;;
15536;SDS011;7870;52.448;13.270;2024-02-21T07:51:54;18.98;;;9.77;;
15536;SDS011;7870;52.448;13.270;2024-02-21T07:54:20;18.80;;;8.90;;
15536;SDS011;7870;52.448;13.270;2024-02-21T07:56:47;18.48;;;9.38;;
15536;SDS011;7870;52.448;13.270;2024-02-21T07:59:14;18.92;;;9.15;;
15536;SDS011;7870;52.448;13.270;2024-02-21T08:01:40;23.45;;;9.52;;
15536;SDS011;7870;52.448;13.270;2024-02-21T08:04:07;21.20;;;10.75;;
15536;SDS011;7870;52.448;13.270;2024-02-21T08:06:34;16.85;;;8.77;;
15536;SDS011;7870;52.448;13.270;2024-02-21T08:09:00;17.73;;;10.18;;
15536;SDS011;7870;52.448;13.270;2024-02-21T08:11:27;16.00;;;8.38;;
15536;SDS011;7870;52.448;13.270;2024-02-21T08:13:53;20.73;;;11.57;;
15536;SDS011;7870;52.448;13.270;2024-02-21T08:16:20;17.38;;;9.85;;
15536;SDS011;7870;52.448;13.270;2024-02-21T08:18:47;17.85;;;9.68;;
15536;SDS011;7870;52.448;13.270;2024-02-21T08:21:13;13.68;;;9.70;;
15536;SDS011;7870;52.448;13.270;2024-02-21T08:23:40;18.13;;;8.05;;
15536;SDS011;7870;52.448;13.270;2024-02-21T08:26:07;17.38;;;9.20;;
15536;SDS011;7870;52.448;13.270;2024-02-21T08:28:34;17.55;;;8.95;;
15536;SDS011;7870;52.448;13.270;2024-02-21T08:31:00;17.50;;;9.23;;
15536;SDS011;7870;52.448;13.270;2024-02-21T08:33:27;14.82;;;8.60;;
15536;SDS011;7870;52.448;13.270;2024-02-21T08:35:55;16.15;;;10.02;;
15536;SDS011;7870;52.448;13.270;2024-02-21T08:38:22;16.60;;;10.05;;
15536;SDS011;7870;52.448;13.270;2024-02-21T08:40:48;15.02;;;9.70;;
15536;SDS011;7870;52.448;13.270;2024-02-21T08:43:15;16.10;;;10.15;;
15536;SDS011;7870;52.448;13.270;2024-02-21T08:45:41;16.35;;;8.63;;
15536;SDS011;7870;52.448;13.270;2024-02-21T08:48:08;12.75;;;9.40;;
15536;SDS011;7870;52.448;13.270;2024-02-21T08:50:35;14.23;;;8.43;;
15536;SDS011;7870;52.448;13.270;2024-02-21T08:53:02;12.90;;;8.45;;
15536;SDS011;7870;52.448;13.270;2024-02-21T08:55:29;16.58;;;10.07;;
15536;SDS011;7870;52.448;13.270;2024-02-21T08:57:56;17.20;;;10.55;;
15536;SDS011;7870;52.448;13.270;2024-02-21T09:00:22;15.90;;;8.27;;
15536;SDS011;7870;52.448;13.270;2024-02-21T09:02:54;15.10;;;9.85;;
15536;SDS011;7870;52.448;13.270;2024-02-21T09:05:22;18.52;;;10.25;;
15536;SDS011;7870;52.448;13.270;2024-02-21T09:07:50;14.57;;;9.15;;
15536;SDS011;7870;52.448;13.270;2024-02-21T09:10:16;18.20;;;10.00;;
15536;SDS011;7870;52.448;13.270;2024-02-21T09:12:44;17.48;;;11.02;;
15536;SDS011;7870;52.448;13.270;2024-02-21T09:15:11;18.60;;;11.43;;
15536;SDS011;7870;52.448;13.270;2024-02-21T09:17:37;16.58;;;11.02;;
15536;SDS011;7870;52.448;13.270;2024-02-21T09:20:05;17.65;;;11.10;;
15536;SDS011;7870;52.448;13.270;2024-02-21T09:22:33;15.23;;;10.23;;
15536;SDS011;7870;52.448;13.270;2024-02-21T09:25:01;14.35;;;9.52;;
15536;SDS011;7870;52.448;13.270;2024-02-21T09:27:29;16.92;;;11.43;;
15536;SDS011;7870;52.448;13.270;2024-02-21T09:29:56;15.77;;;10.23;;
15536;SDS011;7870;52.448;13.270;2024-02-21T09:32:23;17.70;;;10.40;;
15536;SDS011;7870;52.448;13.270;2024-02-21T09:34:49;16.13;;;9.90;;
15536;SDS011;7870;52.448;13.270;2024-02-21T09:37:16;15.10;;;9.35;;
15536;SDS011;7870;52.448;13.270;2024-02-21T09:39:43;16.63;;;11.13;;
15536;SDS011;7870;52.448;13.270;2024-02-21T09:42:10;18.55;;;10.60;;
15536;SDS011;7870;52.448;13.270;2024-02-21T09:44:37;15.70;;;9.18;;
15536;SDS011;7870;52.448;13.270;2024-02-21T09:47:09;16.77;;;10.25;;
15536;SDS011;7870;52.448;13.270;2024-02-21T09:49:40;17.10;;;10.20;;
15536;SDS011;7870;52.448;13.270;2024-02-21T09:52:09;16.25;;;10.15;;
15536;SDS011;7870;52.448;13.270;2024-02-21T09:54:38;16.98;;;10.82;;
15536;SDS011;7870;52.448;13.270;2024-02-21T09:57:07;16.60;;;9.70;;
15536;SDS011;7870;52.448;13.270;2024-02-21T09:59:34;14.52;;;8.90;;
15536;SDS011;7870;52.448;13.270;2024-02-21T10:02:00;13.70;;;8.75;;
15536;SDS011;7870;52.448;13.270;2024-02-21T10:04:28;15.63;;;10.27;;
15536;SDS011;7870;52.448;13.270;2024-02-21T10:06:56;16.42;;;9.52;;
15536;SDS011;7870;52.448;13.270;2024-02-21T10:09:23;15.88;;;9.65;;
15536;SDS011;7870;52.448;13.270;2024-02-21T10:11:50;13.68;;;9.63;;
15536;SDS011;7870;52.448;13.270;2024-02-21T10:14:17;14.02;;;8.35;;
15536;SDS011;7870;52.448;13.270;2024-02-21T10:16:46;14.70;;;9.45;;
15536;SDS011;7870;52.448;13.270;2024-02-21T10:19:15;15.75;;;9.55;;
15536;SDS011;7870;52.448;13.270;2024-02-21T10:21:43;14.48;;;8.90;;
15536;SDS011;7870;52.448;13.270;2024-02-21T10:24:11;18.33;;;9.52;;
15536;SDS011;7870;52.448;13.270;2024-02-21T10:26:38;12.75;;;9.27;;
15536;SDS011;7870;52.448;13.270;2024-02-21T10:29:05;14.95;;;9.55;;
15536;SDS011;7870;52.448;13.270;2024-02-21T10:31:32;13.45;;;9.43;;
15536;SDS011;7870;52.448;13.270;2024-02-21T10:34:00;12.85;;;9.18;;
15536;SDS011;7870;52.448;13.270;2024-02-21T10:36:30;11.70;;;8.63;;
15536;SDS011;7870;52.448;13.270;2024-02-21T10:38:56;12.38;;;9.57;;
15536;SDS011;7870;52.448;13.270;2024-02-21T10:41:23;13.35;;;9.38;;
15536;SDS011;7870;52.448;13.270;2024-02-21T10:43:51;14.00;;;10.35;;
15536;SDS011;7870;52.448;13.270;2024-02-21T10:46:20;11.30;;;8.23;;
15536;SDS011;7870;52.448;13.270;2024-02-21T10:48:51;11.82;;;8.23;;
15536;SDS011;7870;52.448;13.270;2024-02-21T10:51:23;10.60;;;8.13;;
15536;SDS011;7870;52.448;13.270;2024-02-21T10:56:39;9.38;;;7.55;;
15536;SDS011;7870;52.448;13.270;2024-02-21T10:59:07;13.10;;;8.02;;
15536;SDS011;7870;52.448;13.270;2024-02-21T11:01:34;12.35;;;8.48;;
15536;SDS011;7870;52.448;13.270;2024-02-21T11:04:07;11.32;;;6.43;;
15536;SDS011;7870;52.448;13.270;2024-02-21T11:06:35;8.52;;;5.93;;
15536;SDS011;7870;52.448;13.270;2024-02-21T11:09:06;15.38;;;7.65;;
15536;SDS011;7870;52.448;13.270;2024-02-21T11:11:35;8.43;;;5.93;;
15536;SDS011;7870;52.448;13.270;2024-02-21T11:14:07;7.95;;;6.28;;
15536;SDS011;7870;52.448;13.270;2024-02-21T11:16:46;10.73;;;6.70;;
15536;SDS011;7870;52.448;13.270;2024-02-21T11:19:19;8.85;;;5.85;;
15536;SDS011;7870;52.448;13.270;2024-02-21T11:21:48;8.93;;;6.20;;
15536;SDS011;7870;52.448;13.270;2024-02-21T11:24:25;7.63;;;5.53;;
15536;SDS011;7870;52.448;13.270;2024-02-21T11:26:52;9.23;;;5.63;;
15536;SDS011;7870;52.448;13.270;2024-02-21T11:29:25;9.80;;;5.15;;
15536;SDS011;7870;52.448;13.270;2024-02-21T11:31:52;8.88;;;5.65;;
15536;SDS011;7870;52.448;13.270;2024-02-21T11:34:19;10.75;;;6.63;;
15536;SDS011;7870;52.448;13.270;2024-02-21T11:36:49;8.45;;;4.80;;
15536;SDS011;7870;52.448;13.270;2024-02-21T11:39:23;6.88;;;4.28;;
15536;SDS011;7870;52.448;13.270;2024-02-21T11:42:00;10.25;;;5.55;;
15536;SDS011;7870;52.448;13.270;2024-02-21T11:44:30;7.78;;;4.65;;
15536;SDS011;7870;52.448;13.270;2024-02-21T11:47:00;8.57;;;5.38;;
15536;SDS011;7870;52.448;13.270;2024-02-21T11:49:28;6.15;;;4.32;;
15536;SDS011;7870;52.448;13.270;2024-02-21T11:51:59;6.00;;;4.13;;
15536;SDS011;7870;52.448;13.270;2024-02-21T11:54:30;7.50;;;4.00;;
15536;SDS011;7870;52.448;13.270;2024-02-21T11:56:57;6.45;;;4.28;;
15536;SDS011;7870;52.448;13.270;2024-02-21T11:59:24;7.07;;;4.22;;
15536;SDS011;7870;52.448;13.270;2024-02-21T12:01:50;9.55;;;4.97;;
15536;SDS011;7870;52.448;13.270;2024-02-21T12:04:18;8.13;;;4.68;;
15536;SDS011;7870;52.448;13.270;2024-02-21T12:06:46;9.23;;;4.13;;
15536;SDS011;7870;52.448;13.270;2024-02-21T12:09:16;9.73;;;5.03;;
15536;SDS011;7870;52.448;13.270;2024-02-21T12:11:43;7.25;;;3.67;;
15536;SDS011;7870;52.448;13.270;2024-02-21T12:14:10;6.60;;;4.15;;
15536;SDS011;7870;52.448;13.270;2024-02-21T12:16:37;6.68;;;3.72;;
15536;SDS011;7870;52.448;13.270;2024-02-21T12:19:03;6.95;;;5.18;;
15536;SDS011;7870;52.448;13.270;2024-02-21T12:21:31;6.60;;;4.20;;
15536;SDS011;7870;52.448;13.270;2024-02-21T12:23:59;6.35;;;3.75;;
15536;SDS011;7870;52.448;13.270;2024-02-21T12:26:26;7.60;;;4.63;;
15536;SDS011;7870;52.448;13.270;2024-02-21T12:28:53;8.52;;;3.55;;
15536;SDS011;7870;52.448;13.270;2024-02-21T12:31:20;6.53;;;4.07;;
15536;SDS011;7870;52.448;13.270;2024-02-21T12:33:47;6.82;;;4.45;;
15536;SDS011;7870;52.448;13.270;2024-02-21T12:36:14;8.90;;;3.92;;
15536;SDS011;7870;52.448;13.270;2024-02-21T12:38:41;5.20;;;3.60;;
15536;SDS011;7870;52.448;13.270;2024-02-21T12:41:08;8.25;;;4.05;;
15536;SDS011;7870;52.448;13.270;2024-02-21T12:43:35;8.07;;;4.00;;
15536;SDS011;7870;52.448;13.270;2024-02-21T12:46:02;6.40;;;4.13;;
15536;SDS011;7870;52.448;13.270;2024-02-21T12:48:28;10.90;;;4.13;;
15536;SDS011;7870;52.448;13.270;2024-02-21T12:50:55;9.48;;;4.35;;
15536;SDS011;7870;52.448;13.270;2024-02-21T12:53:21;8.57;;;3.80;;
15536;SDS011;7870;52.448;13.270;2024-02-21T12:55:58;10.93;;;4.72;;
15536;SDS011;7870;52.448;13.270;2024-02-21T12:58:25;7.65;;;4.30;;
15536;SDS011;7870;52.448;13.270;2024-02-21T13:00:51;6.18;;;3.00;;
15536;SDS011;7870;52.448;13.270;2024-02-21T13:03:18;9.18;;;3.30;;
15536;SDS011;7870;52.448;13.270;2024-02-21T13:05:44;5.80;;;3.22;;
15536;SDS011;7870;52.448;13.270;2024-02-21T13:08:11;6.65;;;3.97;;
15536;SDS011;7870;52.448;13.270;2024-02-21T13:10:40;5.78;;;3.28;;
15536;SDS011;7870;52.448;13.270;2024-02-21T13:13:06;7.28;;;3.45;;
15536;SDS011;7870;52.448;13.270;2024-02-21T13:15:33;8.77;;;4.75;;
15536;SDS011;7870;52.448;13.270;2024-02-21T13:17:59;9.57;;;4.20;;
15536;SDS011;7870;52.448;13.270;2024-02-21T13:20:26;9.18;;;3.97;;
15536;SDS011;7870;52.448;13.270;2024-02-21T13:22:54;7.93;;;3.60;;
15536;SDS011;7870;52.448;13.270;2024-02-21T13:25:21;6.15;;;3.40;;
15536;SDS011;7870;52.448;13.270;2024-02-21T13:27:48;6.90;;;3.00;;
15536;SDS011;7870;52.448;13.270;2024-02-21T13:30:15;8.88;;;4.03;;
15536;SDS011;7870;52.448;13.270;2024-02-21T13:32:44;7.25;;;3.78;;
15536;SDS011;7870;52.448;13.270;2024-02-21T13:35:14;7.28;;;3.35;;
15536;SDS011;7870;52.448;13.270;2024-02-21T13:37:41;7.43;;;3.50;;
15536;SDS011;7870;52.448;13.270;2024-02-21T13:40:08;7.55;;;3.33;;
15536;SDS011;7870;52.448;13.270;2024-02-21T13:42:37;5.60;;;3.42;;
15536;SDS011;7870;52.448;13.270;2024-02-21T13:45:04;8.02;;;4.20;;
15536;SDS011;7870;52.448;13.270;2024-02-21T13:47:34;6.65;;;3.08;;
15536;SDS011;7870;52.448;13.270;2024-02-21T13:50:02;8.40;;;3.17;;
15536;SDS011;7870;52.448;13.270;2024-02-21T13:52:37;7.53;;;3.03;;
15536;SDS011;7870;52.448;13.270;2024-02-21T13:55:04;6.53;;;3.55;;
15536;SDS011;7870;52.448;13.270;2024-02-21T13:57:30;8.00;;;3.20;;
15536;SDS011;7870;52.448;13.270;2024-02-21T13:59:57;5.72;;;3.30;;
15536;SDS011;7870;52.448;13.270;2024-02-21T14:02:23;5.68;;;3.45;;
15536;SDS011;7870;52.448;13.270;2024-02-21T14:04:50;5.80;;;2.88;;
15536;SDS011;7870;52.448;13.270;2024-02-21T14:07:17;8.38;;;3.25;;
15536;SDS011;7870;52.448;13.270;2024-02-21T14:09:43;7.90;;;2.92;;
15536;SDS011;7870;52.448;13.270;2024-02-21T14:12:10;6.93;;;3.10;;
15536;SDS011;7870;52.448;13.270;2024-02-21T14:14:37;4.88;;;2.63;;
15536;SDS011;7870;52.448;13.270;2024-02-21T14:17:05;6.93;;;2.50;;
15536;SDS011;7870;52.448;13.270;2024-02-21T14:19:32;4.60;;;2.53;;
15536;SDS011;7870;52.448;13.270;2024-02-21T14:21:59;8.15;;;2.90;;
15536;SDS011;7870;52.448;13.270;2024-02-21T14:24:26;9.10;;;3.08;;
15536;SDS011;7870;52.448;13.270;2024-02-21T14:26:54;5.03;;;2.70;;
15536;SDS011;7870;52.448;13.270;2024-02-21T14:29:21;6.55;;;3.15;;
15536;SDS011;7870;52.448;13.270;2024-02-21T14:31:48;5.15;;;2.55;;
15536;SDS011;7870;52.448;13.270;2024-02-21T14:34:15;8.35;;;3.28;;
15536;SDS011;7870;52.448;13.270;2024-02-21T14:36:41;6.18;;;3.10;;